Jennerstown, PA (15547)

5:08 AM EST on December 09, 2016 (GMT -0500)
School Ave. | | Change Station

Elev 1880 ft 40.21 °N, 78.99 °W | Updated 3 minutes ago

Overcast
Overcast
20.2 °F
Feels Like 11 °F
N
7.0
Wind Variable Wind from WNW
Gusts 12.0 mph

Today
High -- | Low -- °F
--% Chance of Precip.
Yesterday
High -- | Low -- °F
Precip. -- in
Pressure 30.24 in
Visibility 4.0 miles
Clouds Overcast 1000 ft
Windchill 11 °F
Dew Point 16 °F
Humidity 84%
Rainfall 0.00 in
Snow Depth Not available.
7:27 AM 4:50 PM
Waxing Gibbous, 72% visible
METAR KJST 090954Z AUTO 27014G20KT 4SM -SN BR OVC010 M08/M09 A3013 RMK AO2 SLP238 P0000 T10781094 TSNO
Pressure 30.24 in
Visibility 4.0 miles
Clouds Overcast 1000 ft
Windchill 11 °F
Dew Point 16 °F
Humidity 84%
Rainfall 0.00 in
Snow Depth Not available.
7:27 AM 4:50 PM
Waxing Gibbous, 72% visible
METAR KJST 090954Z AUTO 27014G20KT 4SM -SN BR OVC010 M08/M09 A3013 RMK AO2 SLP238 P0000 T10781094 TSNO

10-Day Weather Forecast

Almanac

Astronomy

Dec. 09, 2016 Rise Set
Actual Time
Civil Twilight
Nautical Twilight
Astronomical Twilight
Moon
Length of Visible Light
Length of Day
Tomorrow will be .
, % of the Moon is Illuminated

Today's Extremes

State Highs State Lows

Community

WunderPhotos

Upload Photos

1,956,378 photos uploaded!

WunderBlog® & News

Nearby

Air Quality

  Air Quality AQ Index Pollutant
Not available.

Snow Depth

Station Depth Elevation

Earthquake Activity

City Distance Mag. Time & Date
Minimum magnitude displayed is 2.5.

Coastal Water Temperatures

Place Temperature

Stations

Nearby Weather Stations

Station Location Temp. Windchill Dew Point Humidity Wind Precip. Elev Updated Type
                   

Watches & Warnings

There are currently no watches in effect.